Time;durP1;ratioP1;P1;durP2;ratioP2;P2;SDS_P1;SDS_P2;PMS_P1;PMS_P2;Temp;Humidity;BMP_temperature;BMP_pressure;BME280_temperature;BME280_humidity;BME280_pressure;Samples;Min_cycle;Max_cycle;Signal;HPM_P1;HPM_P2
2024/01/18 00:01:35;;;;;;;24.45;14.30;;;;;;;4.17;100.00;62425.63;5106259;28;20204;-76
2024/01/18 00:04:02;;;;;;;19.65;12.15;;;;;;;4.19;100.00;62427.66;5107153;28;20579;-77
2024/01/18 00:06:31;;;;;;;19.23;12.63;;;;;;;4.31;100.00;62439.50;5108188;28;20231;-77
2024/01/18 00:08:59;;;;;;;20.48;12.57;;;;;;;4.39;100.00;62448.25;5114321;28;20217;-78
2024/01/18 00:11:27;;;;;;;23.13;13.23;;;;;;;4.35;100.00;62446.66;5109340;28;20212;-77
2024/01/18 00:13:54;;;;;;;23.50;13.63;;;;;;;4.12;100.00;62423.00;5105916;28;20200;-77
2024/01/18 00:16:21;;;;;;;25.15;13.15;;;;;;;4.18;100.00;62429.16;5106979;28;20204;-76
2024/01/18 00:18:48;;;;;;;20.88;12.30;;;;;;;4.18;100.00;62426.63;5098247;28;20413;-77
2024/01/18 00:21:15;;;;;;;22.25;13.52;;;;;;;4.17;100.00;62430.13;5107111;28;20224;-76
2024/01/18 00:23:42;;;;;;;21.52;13.70;;;;;;;4.02;100.00;62407.16;5095790;28;20232;-76
2024/01/18 00:26:11;;;;;;;23.80;12.48;;;;;;;4.14;100.00;62425.03;5109499;28;20219;-76
2024/01/18 00:28:38;;;;;;;20.13;13.48;;;;;;;4.19;100.00;62430.19;5108585;28;20372;-77
2024/01/18 00:31:05;;;;;;;21.33;13.65;;;;;;;4.22;100.00;62428.25;5107344;28;20269;-76
2024/01/18 00:33:32;;;;;;;15.60;11.77;;;;;;;4.35;100.00;62444.13;5110559;28;20284;-76
2024/01/18 00:35:58;;;;;;;18.17;12.07;;;;;;;4.36;100.00;62447.16;5108430;28;20414;-76
2024/01/18 00:38:26;;;;;;;20.20;12.02;;;;;;;4.36;100.00;62445.16;5100346;28;20254;-76
2024/01/18 00:40:52;;;;;;;20.25;12.60;;;;;;;4.37;100.00;62450.72;5103175;28;20224;-76
2024/01/18 00:43:21;;;;;;;20.02;12.60;;;;;;;4.42;100.00;62451.31;5105267;28;20232;-76
2024/01/18 00:45:48;;;;;;;23.38;12.70;;;;;;;4.54;100.00;62468.72;5105262;28;20220;-76
2024/01/18 00:48:15;;;;;;;18.45;12.85;;;;;;;4.46;100.00;62460.50;5116297;28;20196;-76
2024/01/18 00:50:42;;;;;;;14.80;9.32;;;;;;;4.45;100.00;62454.41;5112478;28;20224;-75
2024/01/18 00:53:08;;;;;;;11.93;6.95;;;;;;;4.32;100.00;62443.56;5111207;28;20192;-75
2024/01/18 00:55:36;;;;;;;15.10;10.30;;;;;;;4.24;100.00;62434.81;5106709;28;20215;-75
2024/01/18 00:58:03;;;;;;;18.13;12.00;;;;;;;4.36;100.00;62447.69;5111136;28;20200;-76
2024/01/18 01:00:31;;;;;;;20.02;12.02;;;;;;;4.35;100.00;62444.13;5107141;28;20216;-75
2024/01/18 01:02:58;;;;;;;17.70;12.03;;;;;;;4.39;100.00;62448.25;5105520;28;20211;-75
2024/01/18 01:05:28;;;;;;;20.13;12.75;;;;;;;4.28;100.00;62436.91;5107290;28;20253;-75
2024/01/18 01:07:55;;;;;;;20.50;12.40;;;;;;;4.38;100.00;62447.19;5104206;28;20226;-74
2024/01/18 01:10:22;;;;;;;21.08;12.98;;;;;;;4.47;100.00;62459.00;5089304;28;20232;-75
2024/01/18 01:12:49;;;;;;;18.00;12.38;;;;;;;4.53;100.00;62464.66;5105269;28;20240;-77
2024/01/18 01:15:16;;;;;;;23.35;13.35;;;;;;;4.61;100.00;62473.41;5104251;28;20223;-75
2024/01/18 01:17:45;;;;;;;15.65;11.10;;;;;;;4.58;100.00;62467.28;5105631;28;20216;-75
2024/01/18 01:20:12;;;;;;;20.05;12.80;;;;;;;4.53;100.00;62464.66;5108828;28;20265;-75
2024/01/18 01:22:39;;;;;;;15.43;10.10;;;;;;;4.53;100.00;62462.66;5108420;28;20196;-76
2024/01/18 01:25:07;;;;;;;18.40;11.25;;;;;;;4.57;100.00;62469.28;5091235;28;20234;-76
2024/01/18 01:27:34;;;;;;;16.83;11.25;;;;;;;4.41;100.00;62452.31;5105976;28;20218;-76
2024/01/18 01:30:01;;;;;;;9.73;7.30;;;;;;;4.51;100.00;62465.13;5104445;28;20220;-75
2024/01/18 01:32:28;;;;;;;13.77;9.57;;;;;;;4.65;100.00;62474.50;5105600;28;20276;-76
2024/01/18 01:34:57;;;;;;;8.35;6.50;;;;;;;4.76;100.00;62482.78;5108284;28;20279;-75
2024/01/18 01:37:23;;;;;;;6.18;4.60;;;;;;;4.94;100.00;62503.81;5104823;28;20196;-76
2024/01/18 01:39:51;;;;;;;6.47;5.60;;;;;;;4.98;100.00;62505.41;5101321;28;20227;-76
2024/01/18 01:42:18;;;;;;;12.63;8.30;;;;;;;4.91;100.00;62506.31;5105130;28;20204;-74
2024/01/18 01:44:45;;;;;;;11.20;9.10;;;;;;;4.88;100.00;62497.66;5104933;28;20603;-77
2024/01/18 01:47:12;;;;;;;15.32;11.00;;;;;;;4.78;100.00;62487.34;5112345;28;20265;-75
2024/01/18 01:49:39;;;;;;;18.33;13.02;;;;;;;4.10;100.00;62425.97;5106466;28;20215;-75
2024/01/18 01:52:07;;;;;;;23.10;14.98;;;;;;;3.91;100.00;62401.38;5105191;28;20206;-75
2024/01/18 01:54:34;;;;;;;20.88;13.55;;;;;;;3.95;100.00;62405.47;5103581;28;20216;-75
2024/01/18 01:57:02;;;;;;;19.08;13.85;;;;;;;4.01;100.00;62411.16;5104082;28;20431;-75
2024/01/18 01:59:29;;;;;;;21.02;14.60;;;;;;;3.97;100.00;62402.00;5105118;28;20227;-75
2024/01/18 02:01:56;;;;;;;20.77;14.57;;;;;;;3.90;100.00;62399.84;5108294;28;20429;-75
2024/01/18 02:04:23;;;;;;;18.52;12.38;;;;;;;3.94;100.00;62404.47;5104822;28;20465;-76
2024/01/18 02:06:51;;;;;;;19.17;13.32;;;;;;;3.95;100.00;62405.47;5103157;28;20210;-76
2024/01/18 02:09:19;;;;;;;19.65;13.55;;;;;;;3.95;100.00;62400.44;5103038;28;20227;-75
2024/01/18 02:11:47;;;;;;;23.88;15.40;;;;;;;4.00;100.00;62410.13;5109235;28;20192;-75
2024/01/18 02:14:13;;;;;;;25.45;14.80;;;;;;;4.00;100.00;62410.66;5104021;28;20257;-75
2024/01/18 02:16:41;;;;;;;20.73;13.82;;;;;;;4.08;100.00;62416.34;5105951;28;20253;-74
2024/01/18 02:19:07;;;;;;;18.58;12.35;;;;;;;4.01;100.00;62408.63;5102403;28;20212;-74
2024/01/18 02:21:34;;;;;;;18.75;12.73;;;;;;;3.87;100.00;62391.69;5103258;28;20194;-74
2024/01/18 02:24:04;;;;;;;21.10;13.07;;;;;;;3.81;100.00;62390.56;5103353;28;20536;-76
2024/01/18 02:26:33;;;;;;;16.52;13.30;;;;;;;3.76;100.00;62382.91;5104676;28;20192;-75
2024/01/18 02:28:59;;;;;;;17.33;11.77;;;;;;;3.78;100.00;62384.97;5103152;28;20279;-75
2024/01/18 02:31:26;;;;;;;17.20;11.82;;;;;;;3.83;100.00;62390.13;5106698;28;20192;-74
2024/01/18 02:33:53;;;;;;;14.15;10.98;;;;;;;3.87;100.00;62397.25;5107985;28;20212;-75
2024/01/18 02:36:21;;;;;;;14.55;10.55;;;;;;;3.91;100.00;62398.34;5105140;28;20204;-75
2024/01/18 02:38:48;;;;;;;17.05;12.40;;;;;;;3.95;100.00;62402.97;5091320;28;20212;-75
2024/01/18 02:41:15;;;;;;;18.23;12.50;;;;;;;4.00;100.00;62405.59;5102864;28;20291;-74
2024/01/18 02:43:43;;;;;;;17.42;12.60;;;;;;;3.99;100.00;62411.59;5106218;28;20215;-75
2024/01/18 02:46:10;;;;;;;19.77;11.93;;;;;;;4.00;100.00;62405.59;5102316;28;20222;-75
2024/01/18 02:48:37;;;;;;;16.98;12.15;;;;;;;4.03;100.00;62413.72;5103728;28;20245;-76
2024/01/18 02:51:04;;;;;;;15.98;12.02;;;;;;;3.95;100.00;62402.97;5095918;28;20266;-75
2024/01/18 02:53:31;;;;;;;14.80;11.82;;;;;;;3.97;100.00;62402.50;5105651;28;20438;-74
2024/01/18 02:55:58;;;;;;;17.05;11.55;;;;;;;3.92;100.00;62399.38;5111594;28;20224;-74
2024/01/18 02:58:25;;;;;;;19.60;12.85;;;;;;;3.91;100.00;62401.38;5108514;28;20200;-74
2024/01/18 03:00:54;;;;;;;14.32;10.60;;;;;;;3.68;100.00;62380.22;5105076;28;20216;-75
2024/01/18 03:03:21;;;;;;;15.98;12.05;;;;;;;3.73;100.00;62380.34;5104009;28;20273;-75
2024/01/18 03:05:48;;;;;;;20.98;12.13;;;;;;;3.80;100.00;62392.56;5104268;28;20240;-74
2024/01/18 03:08:15;;;;;;;15.88;12.05;;;;;;;3.59;100.00;62365.94;5104044;28;20204;-76
2024/01/18 03:10:42;;;;;;;15.52;11.65;;;;;;;3.52;100.00;62363.78;5102369;28;20454;-76
2024/01/18 03:13:09;;;;;;;15.32;11.77;;;;;;;3.42;100.00;62350.97;5107398;28;20199;-76
2024/01/18 03:15:36;;;;;;;16.95;11.48;;;;;;;3.45;100.00;62351.56;5103729;28;20453;-76
2024/01/18 03:18:05;;;;;;;14.25;11.48;;;;;;;3.47;100.00;62351.59;5104393;28;20242;-77
2024/01/18 03:20:32;;;;;;;16.08;11.23;;;;;;;3.29;100.00;62332.59;5106384;28;20258;-77
2024/01/18 03:22:59;;;;;;;18.25;11.85;;;;;;;3.34;100.00;62337.72;5109211;28;20227;-75
2024/01/18 03:25:26;;;;;;;16.10;12.48;;;;;;;3.22;100.00;62337.97;5117323;28;20224;-76
2024/01/18 03:27:53;;;;;;;16.42;11.55;;;;;;;3.09;100.00;62314.56;5103411;28;20201;-76
2024/01/18 03:30:20;;;;;;;16.65;12.02;;;;;;;2.99;100.00;62306.78;5098785;28;20218;-76
2024/01/18 03:32:47;;;;;;;17.60;11.98;;;;;;;3.11;100.00;62314.06;5107517;28;20277;-75
2024/01/18 03:35:16;;;;;;;17.10;13.35;;;;;;;3.16;100.00;62327.28;5107273;28;20319;-74
2024/01/18 03:37:42;;;;;;;16.05;11.98;;;;;;;3.15;100.00;62323.22;5107105;28;20207;-75
2024/01/18 03:40:10;;;;;;;15.93;11.73;;;;;;;3.28;100.00;62334.06;5103101;28;20661;-75
2024/01/18 03:42:40;;;;;;;17.30;12.05;;;;;;;3.46;100.00;62355.63;5108587;28;20211;-76
2024/01/18 03:45:07;;;;;;;18.20;11.60;;;;;;;3.47;100.00;62353.59;5108535;28;20258;-74
2024/01/18 03:47:34;;;;;;;16.67;11.55;;;;;;;3.51;100.00;62358.25;5105544;28;20229;-75
2024/01/18 03:50:01;;;;;;;13.82;11.77;;;;;;;3.56;100.00;62362.84;5109184;28;20334;-75
2024/01/18 03:52:29;;;;;;;18.48;13.35;;;;;;;3.58;100.00;62364.41;5111439;28;20207;-76
2024/01/18 03:54:57;;;;;;;16.67;12.20;;;;;;;3.58;100.00;62369.94;5107673;28;20626;-75
2024/01/18 03:57:25;;;;;;;18.42;12.73;;;;;;;3.63;100.00;62374.56;5107402;28;20221;-75
2024/01/18 03:59:52;;;;;;;15.35;11.50;;;;;;;3.62;100.00;62369.03;5107302;28;20239;-77
2024/01/18 04:02:18;;;;;;;17.65;12.05;;;;;;;3.62;100.00;62369.03;5106926;28;20200;-75
2024/01/18 04:04:45;;;;;;;16.63;12.30;;;;;;;3.65;100.00;62371.59;5106067;28;20235;-76
2024/01/18 04:07:12;;;;;;;15.85;12.15;;;;;;;3.51;100.00;62360.75;5111837;28;20268;-75
2024/01/18 04:09:40;;;;;;;22.77;13.20;;;;;;;3.54;100.00;62361.31;5108936;28;20584;-75
2024/01/18 04:12:08;;;;;;;18.58;13.05;;;;;;;3.53;100.00;62359.78;5106515;28;20204;-76
2024/01/18 04:14:35;;;;;;;21.58;14.38;;;;;;;3.40;100.00;62348.91;5110010;28;20261;-76
2024/01/18 04:17:02;;;;;;;20.70;13.02;;;;;;;3.58;100.00;62367.44;5105722;28;20218;-75
2024/01/18 04:19:29;;;;;;;16.05;12.52;;;;;;;3.60;100.00;62366.97;5100949;28;20427;-75
2024/01/18 04:21:57;;;;;;;17.67;12.85;;;;;;;3.60;100.00;62368.97;5108017;28;20286;-74
2024/01/18 04:24:24;;;;;;;19.25;12.73;;;;;;;3.61;100.00;62370.03;5108688;28;20232;-75
2024/01/18 04:26:52;;;;;;;17.23;12.98;;;;;;;3.64;100.00;62370.59;5105027;28;20206;-75
2024/01/18 04:29:19;;;;;;;17.05;13.00;;;;;;;3.65;100.00;62372.13;5106596;28;20547;-76
2024/01/18 04:31:46;;;;;;;19.58;13.77;;;;;;;3.71;100.00;62377.78;5106906;28;20539;-75
2024/01/18 04:34:14;;;;;;;18.27;12.90;;;;;;;3.66;100.00;62375.66;5103848;28;20227;-75
2024/01/18 04:36:41;;;;;;;20.77;13.35;;;;;;;3.72;100.00;62381.31;5108966;28;20215;-74
2024/01/18 04:39:09;;;;;;;15.82;11.55;;;;;;;3.70;100.00;62374.22;5105703;28;20287;-76
2024/01/18 04:41:37;;;;;;;16.75;12.02;;;;;;;3.79;100.00;62388.53;5096310;28;20201;-75
2024/01/18 04:44:05;;;;;;;20.58;12.23;;;;;;;3.88;100.00;62397.78;5104094;28;20200;-74
2024/01/18 04:46:32;;;;;;;17.23;11.55;;;;;;;3.86;100.00;62396.25;5105509;28;20207;-73
2024/01/18 04:48:59;;;;;;;19.17;12.35;;;;;;;3.91;100.00;62398.88;5106309;28;20208;-75
2024/01/18 04:51:26;;;;;;;14.48;11.50;;;;;;;4.01;100.00;62404.09;5098351;28;20196;-74
2024/01/18 04:53:52;;;;;;;15.95;11.65;;;;;;;4.04;100.00;62411.72;5108374;28;20199;-75
2024/01/18 04:56:19;;;;;;;14.00;10.57;;;;;;;4.05;100.00;62415.78;5106125;28;20210;-74
2024/01/18 04:58:46;;;;;;;18.15;11.10;;;;;;;4.15;100.00;62425.56;5106686;28;20389;-76
2024/01/18 05:01:15;;;;;;;15.82;10.45;;;;;;;4.17;100.00;62425.63;5101933;28;20223;-75
2024/01/18 05:03:42;;;;;;;13.68;10.45;;;;;;;4.22;100.00;62430.75;5105165;28;20477;-75
2024/01/18 05:06:09;;;;;;;15.25;10.60;;;;;;;4.31;100.00;62440.03;5101957;28;20238;-75
2024/01/18 05:08:36;;;;;;;13.93;9.55;;;;;;;4.42;100.00;62455.84;5117155;28;20212;-76
2024/01/18 05:11:03;;;;;;;15.98;11.75;;;;;;;4.35;100.00;62446.13;5108651;28;20220;-75
2024/01/18 05:13:30;;;;;;;18.77;11.38;;;;;;;4.30;100.00;62438.97;5106128;28;20227;-76
2024/01/18 05:15:59;;;;;;;14.93;11.35;;;;;;;4.25;100.00;62436.34;5104740;28;20245;-76
2024/01/18 05:18:27;;;;;;;19.15;13.05;;;;;;;4.27;100.00;62435.91;5095579;28;20199;-76
2024/01/18 05:20:54;;;;;;;20.98;14.27;;;;;;;4.29;100.00;62437.44;5097737;28;20216;-74
2024/01/18 05:23:22;;;;;;;15.82;12.65;;;;;;;4.15;100.00;62426.06;5109370;28;20208;-75
2024/01/18 05:25:49;;;;;;;19.95;14.70;;;;;;;4.08;100.00;62415.81;5109235;28;20253;-76
2024/01/18 05:28:16;;;;;;;19.52;13.85;;;;;;;4.10;100.00;62422.94;5093617;28;20386;-76
2024/01/18 05:30:43;;;;;;;19.45;14.02;;;;;;;4.05;100.00;62413.28;5105726;28;20224;-76
2024/01/18 05:33:10;;;;;;;19.40;12.65;;;;;;;4.01;100.00;62413.66;5104439;28;20200;-75
2024/01/18 05:35:38;;;;;;;21.83;13.77;;;;;;;4.11;100.00;62421.94;5109393;28;20235;-76
2024/01/18 05:38:05;;;;;;;20.48;12.43;;;;;;;4.13;100.00;62424.00;5105048;28;20216;-76
2024/01/18 05:40:33;;;;;;;20.02;13.65;;;;;;;4.06;100.00;62418.81;5107142;28;20260;-77
2024/01/18 05:42:59;;;;;;;15.63;12.23;;;;;;;4.15;100.00;62426.06;5090265;28;20201;-74
2024/01/18 05:45:26;;;;;;;18.83;12.27;;;;;;;4.27;100.00;62437.91;5092418;28;20467;-75
2024/01/18 05:47:53;;;;;;;16.63;12.50;;;;;;;4.28;100.00;62436.91;5104696;28;20202;-75
2024/01/18 05:50:20;;;;;;;20.42;12.60;;;;;;;4.33;100.00;62444.09;5093185;28;20228;-75
2024/01/18 05:52:48;;;;;;;16.27;12.73;;;;;;;4.41;100.00;62450.31;5096631;28;20203;-77
2024/01/18 05:55:15;;;;;;;17.88;12.05;;;;;;;4.43;100.00;62451.84;5099516;28;21337;-77
2024/01/18 05:57:42;;;;;;;18.60;12.70;;;;;;;4.43;100.00;62451.84;5102560;28;20200;-76
2024/01/18 06:00:11;;;;;;;15.15;12.02;;;;;;;4.50;100.00;62454.00;5106660;28;20275;-75
2024/01/18 06:02:38;;;;;;;18.40;12.50;;;;;;;4.39;100.00;62450.25;5105999;28;20199;-75
2024/01/18 06:05:06;;;;;;;19.75;12.88;;;;;;;4.36;100.00;62447.69;5101827;28;20243;-76
2024/01/18 06:07:33;;;;;;;15.90;12.30;;;;;;;4.45;100.00;62456.44;5094125;28;20259;-76
2024/01/18 06:10:03;;;;;;;19.50;14.52;;;;;;;4.44;100.00;62453.38;5110919;28;20227;-77
2024/01/18 06:12:32;;;;;;;22.80;13.48;;;;;;;4.42;100.00;62451.31;5109738;28;20259;-77
2024/01/18 06:14:59;;;;;;;24.27;15.18;;;;;;;4.44;100.00;62452.88;5105651;28;20231;-76
2024/01/18 06:17:26;;;;;;;18.60;12.85;;;;;;;4.47;100.00;62459.00;5105775;28;20211;-74
2024/01/18 06:19:53;;;;;;;17.05;14.00;;;;;;;4.45;100.00;62451.88;5105097;28;20223;-77
2024/01/18 06:22:21;;;;;;;18.17;13.20;;;;;;;4.40;100.00;62449.25;5106061;28;20199;-76
2024/01/18 06:24:48;;;;;;;17.98;13.68;;;;;;;4.45;100.00;62456.94;5110516;28;20228;-75
2024/01/18 06:27:17;;;;;;;16.42;11.85;;;;;;;4.44;100.00;62455.91;5108497;28;20241;-76
2024/01/18 06:29:44;;;;;;;18.33;12.27;;;;;;;4.45;100.00;62456.44;5105135;28;20232;-77
2024/01/18 06:32:11;;;;;;;21.60;12.32;;;;;;;4.50;100.00;62466.63;5104857;28;20520;-76
2024/01/18 06:34:38;;;;;;;20.30;12.05;;;;;;;4.53;100.00;62459.63;5107629;28;20224;-76
2024/01/18 06:37:05;;;;;;;15.73;11.73;;;;;;;4.60;100.00;62469.34;5105810;28;20229;-77
2024/01/18 06:39:32;;;;;;;19.20;12.15;;;;;;;4.69;100.00;62481.63;5105110;28;20352;-76
2024/01/18 06:41:59;;;;;;;21.50;12.80;;;;;;;4.58;100.00;62472.31;5104216;28;20242;-77
2024/01/18 06:44:28;;;;;;;19.60;12.82;;;;;;;4.60;100.00;62472.38;5104522;28;20261;-76
2024/01/18 06:46:55;;;;;;;15.63;11.38;;;;;;;4.66;100.00;62473.00;5104351;28;20393;-76
2024/01/18 06:49:23;;;;;;;12.68;9.95;;;;;;;4.67;100.00;62477.06;5109874;28;20224;-76
2024/01/18 06:51:50;;;;;;;13.35;10.20;;;;;;;4.77;100.00;62481.78;5109520;28;20235;-75
2024/01/18 06:54:21;;;;;;;15.93;10.73;;;;;;;4.80;100.00;62489.41;5107531;28;20255;-75
2024/01/18 06:56:48;;;;;;;17.70;11.10;;;;;;;4.81;100.00;62490.44;5109468;28;20267;-75
2024/01/18 06:59:15;;;;;;;14.50;9.35;;;;;;;4.82;100.00;62491.97;5109704;28;20269;-74
2024/01/18 07:01:43;;;;;;;15.80;11.57;;;;;;;4.74;100.00;62488.81;5108148;28;20208;-74
2024/01/18 07:04:11;;;;;;;14.48;9.88;;;;;;;4.79;100.00;62483.34;5108243;28;20204;-74
2024/01/18 07:06:38;;;;;;;13.25;10.48;;;;;;;4.76;100.00;62485.31;5110261;28;20423;-74
2024/01/18 07:09:06;;;;;;;12.38;9.95;;;;;;;4.87;100.00;62499.66;5107880;28;20299;-75
2024/01/18 07:11:33;;;;;;;16.75;10.75;;;;;;;4.80;100.00;62486.91;5107687;28;20230;-75
2024/01/18 07:14:00;;;;;;;15.82;10.35;;;;;;;4.91;100.00;62501.25;5109175;28;20416;-74
2024/01/18 07:16:27;;;;;;;14.85;10.85;;;;;;;4.99;100.00;62514.53;5113332;28;20226;-74
2024/01/18 07:18:56;;;;;;;14.30;10.60;;;;;;;4.93;100.00;62508.38;5097451;28;20218;-73
2024/01/18 07:21:23;;;;;;;18.65;10.75;;;;;;;4.98;100.00;62505.94;5110435;28;20435;-75
2024/01/18 07:23:50;;;;;;;13.90;9.88;;;;;;;4.93;100.00;62502.78;5108368;28;20501;-76
2024/01/18 07:26:17;;;;;;;14.82;11.10;;;;;;;4.93;100.00;62503.31;5107847;28;20285;-75
2024/01/18 07:28:43;;;;;;;16.08;11.70;;;;;;;5.02;100.00;62512.06;5108361;28;20261;-76
2024/01/18 07:31:10;;;;;;;17.50;12.00;;;;;;;5.04;100.00;62514.63;5107357;28;20223;-75
2024/01/18 07:33:37;;;;;;;19.70;13.07;;;;;;;4.90;100.00;62500.22;5107890;28;20509;-74
2024/01/18 07:36:07;;;;;;;17.45;12.70;;;;;;;4.71;100.00;62483.19;5108847;28;20220;-75
2024/01/18 07:38:34;;;;;;;21.73;12.77;;;;;;;4.83;100.00;62493.03;5112328;28;20216;-76
2024/01/18 07:41:02;;;;;;;17.40;12.05;;;;;;;4.89;100.00;62501.19;5109863;28;20216;-75
2024/01/18 07:43:29;;;;;;;16.27;12.60;;;;;;;5.00;100.00;62510.00;5108256;28;20204;-74
2024/01/18 07:45:56;;;;;;;22.13;12.85;;;;;;;5.06;100.00;62514.16;5108111;28;20439;-76
2024/01/18 07:48:22;;;;;;;18.73;11.93;;;;;;;5.21;100.00;62534.16;5112895;28;20200;-75
2024/01/18 07:50:50;;;;;;;18.55;12.20;;;;;;;5.23;100.00;62533.69;5108956;28;20562;-76
2024/01/18 07:53:18;;;;;;;17.00;11.35;;;;;;;5.26;100.00;62537.31;5106902;28;20207;-75
2024/01/18 07:55:45;;;;;;;15.43;11.57;;;;;;;5.42;100.00;62553.78;5099124;28;20380;-76
2024/01/18 07:58:13;;;;;;;16.58;10.88;;;;;;;5.62;100.00;62573.88;5102031;28;20212;-75
2024/01/18 08:00:40;;;;;;;14.40;9.70;;;;;;;5.84;100.00;62596.56;5106985;28;20265;-75
2024/01/18 08:03:09;;;;;;;14.55;9.82;;;;;;;6.04;100.00;62619.19;5108109;28;20204;-77
2024/01/18 08:05:36;;;;;;;13.32;10.75;;;;;;;6.20;100.00;62635.66;5113089;28;20442;-76
2024/01/18 08:08:04;;;;;;;18.80;10.70;;;;;;;6.06;100.00;62618.72;5114213;28;20214;-76
2024/01/18 08:10:32;;;;;;;14.57;11.95;;;;;;;6.22;100.00;62635.19;5109657;28;20244;-75
2024/01/18 08:12:59;;;;;;;19.02;12.35;;;;;;;6.41;100.00;62652.78;5107126;28;20208;-75
2024/01/18 08:15:26;;;;;;;16.48;11.55;;;;;;;6.33;100.00;62649.06;5106902;28;20261;-76
2024/01/18 08:17:53;;;;;;;18.17;11.60;;;;;;;6.25;100.00;62636.28;5107465;28;20204;-75
2024/01/18 08:20:20;;;;;;;15.43;10.43;;;;;;;6.39;100.00;62653.25;5107871;28;20232;-75
2024/01/18 08:22:47;;;;;;;14.57;11.90;;;;;;;6.53;100.00;62672.22;5106444;28;20211;-76
2024/01/18 08:25:14;;;;;;;14.15;10.43;;;;;;;6.77;100.00;62691.91;5106818;28;20247;-77
2024/01/18 08:27:42;;;;;;;13.98;11.50;;;;;;;6.85;100.00;62700.16;5110092;28;20232;-75
2024/01/18 08:30:10;;;;;;;22.73;12.80;;;;;;;6.61;100.00;62680.97;5116136;28;20224;-75
2024/01/18 08:32:37;;;;;;;22.80;12.30;;;;;;;6.61;100.00;62678.44;5110152;28;20207;-76
2024/01/18 08:35:06;;;;;;;22.13;13.88;;;;;;;6.55;100.00;62672.28;5106360;28;20250;-75
2024/01/18 08:37:33;;;;;;;24.75;15.52;;;;;;;6.43;100.00;62659.38;5106176;28;20203;-76
2024/01/18 08:40:00;;;;;;;20.50;14.75;;;;;;;6.53;100.00;62667.69;5106470;28;20243;-76
2024/01/18 08:42:27;;;;;;;26.13;15.45;;;;;;;6.47;100.00;62660.97;5107119;28;20276;-75
2024/01/18 08:44:56;;;;;;;19.45;13.50;;;;;;;6.44;100.00;62660.91;5106884;28;20271;-75
2024/01/18 08:47:23;;;;;;;21.58;13.73;;;;;;;6.54;100.00;62671.22;5107032;28;20237;-74
2024/01/18 08:49:50;;;;;;;22.00;13.43;;;;;;;6.57;100.00;62674.34;5109893;28;20256;-75
2024/01/18 08:52:17;;;;;;;20.67;14.60;;;;;;;6.66;100.00;62683.59;5115867;28;20230;-75
2024/01/18 08:54:44;;;;;;;21.55;13.95;;;;;;;6.72;100.00;62686.75;5107148;28;20220;-76
2024/01/18 08:57:11;;;;;;;16.10;12.07;;;;;;;6.82;100.00;62702.13;5095930;28;20219;-74
2024/01/18 08:59:38;;;;;;;15.93;12.02;;;;;;;6.90;100.00;62708.34;5107404;28;20542;-75
2024/01/18 09:02:08;;;;;;;19.45;13.02;;;;;;;7.09;100.00;62729.47;5106882;28;20215;-76
2024/01/18 09:04:35;;;;;;;18.95;10.93;;;;;;;7.33;100.00;62747.16;5106097;28;20548;-74
2024/01/18 09:07:02;;;;;;;13.32;11.25;;;;;;;7.48;100.00;62765.16;5105273;28;20247;-75
2024/01/18 09:09:29;;;;;;;14.10;10.30;;;;;;;7.76;100.00;62796.59;5105918;28;20223;-73
2024/01/18 09:11:56;;;;;;;14.43;9.68;;;;;;;7.90;100.00;62811.03;5105882;28;20249;-77
2024/01/18 09:14:24;;;;;;;14.85;10.43;;;;;;;8.07;100.00;62826.06;5106664;28;20302;-74
2024/01/18 09:16:51;;;;;;;13.95;10.80;;;;;;;8.28;100.00;62852.34;5105967;28;20243;-76
2024/01/18 09:19:20;;;;;;;15.35;9.85;;;;;;;8.42;100.00;62863.75;5110646;28;20220;-74
2024/01/18 09:21:47;;;;;;;17.98;11.63;;;;;;;8.58;100.00;62880.78;5106243;28;20204;-75
2024/01/18 09:24:14;;;;;;;18.23;12.68;;;;;;;8.73;100.00;62898.31;5106355;28;20562;-74
2024/01/18 09:26:41;;;;;;;20.02;13.85;;;;;;;8.93;100.00;62916.44;5109685;28;20242;-76
2024/01/18 09:29:08;;;;;;;22.05;14.23;;;;;;;9.01;100.00;62925.22;5105127;28;20226;-74
2024/01/18 09:31:35;;;;;;;18.15;12.10;;;;;;;9.15;100.00;62939.69;5105209;28;20199;-76
2024/01/18 09:34:02;;;;;;;18.08;12.07;;;;;;;9.31;100.00;62958.78;5104933;28;20204;-75
2024/01/18 09:36:30;;;;;;;16.05;12.85;;;;;;;9.48;100.00;62970.22;5105746;28;20516;-74
2024/01/18 09:38:57;;;;;;;18.27;11.90;;;;;;;9.52;100.00;62974.38;5105672;28;20246;-74
2024/01/18 09:41:26;;;;;;;22.45;13.55;;;;;;;9.47;100.00;62972.25;5108673;28;20192;-74
2024/01/18 09:43:54;;;;;;;16.80;13.15;;;;;;;9.80;100.00;63008.91;5113237;28;20204;-73
2024/01/18 09:46:21;;;;;;;22.65;14.88;;;;;;;9.86;100.00;63010.03;5106306;28;20242;-72
2024/01/18 09:48:48;;;;;;;15.57;12.68;;;;;;;9.83;100.00;63011.50;5104853;28;20309;-74
2024/01/18 09:51:15;;;;;;;17.90;12.63;;;;;;;9.66;100.00;62993.94;5105065;28;20295;-74
2024/01/18 09:53:48;;;;;;;13.35;8.45;;;;;;;9.77;100.00;63000.22;5107689;28;20274;-75
2024/01/18 09:56:19;;;;;;;13.73;9.82;;;;;;;9.94;100.00;63018.31;5105210;28;20574;-75
2024/01/18 09:58:46;;;;;;;15.30;9.43;;;;;;;10.00;100.00;63029.09;5105001;28;20494;-74
2024/01/18 10:01:16;;;;;;;15.18;11.55;;;;;;;9.85;100.00;63008.50;5104705;28;20270;-75
2024/01/18 10:03:43;;;;;;;16.00;12.32;;;;;;;9.95;100.00;63016.28;5106773;28;20235;-75
2024/01/18 10:06:10;;;;;;;16.58;12.55;;;;;;;10.07;100.00;63031.78;5114239;28;20246;-75
2024/01/18 10:08:37;;;;;;;18.67;12.18;;;;;;;10.14;100.00;63044.13;5106178;28;20238;-78
2024/01/18 10:11:06;;;;;;;17.95;13.32;;;;;;;10.08;100.00;63034.81;5104720;28;20220;-76
2024/01/18 10:13:49;;;;;;;16.63;12.40;;;;;;;9.97;100.00;63023.44;5105505;28;20204;-74
2024/01/18 10:16:28;;;;;;;14.20;10.32;;;;;;;10.15;100.00;63049.72;5104702;28;20287;-74
2024/01/18 10:18:55;;;;;;;15.48;10.00;;;;;;;10.20;100.00;63042.69;5105674;28;20215;-76
2024/01/18 10:21:23;;;;;;;16.98;11.85;;;;;;;10.19;100.00;63048.78;5110399;28;20195;-75
2024/01/18 10:23:50;;;;;;;12.95;10.52;;;;;;;10.21;100.00;63050.84;5107550;28;20211;-75
2024/01/18 10:26:19;;;;;;;7.75;6.07;;;;;;;10.59;100.00;63087.09;5105710;28;20270;-76
2024/01/18 10:28:47;;;;;;;5.25;3.50;;;;;;;11.57;100.00;63188.56;5108573;28;20214;-77
2024/01/18 10:31:13;;;;;;;5.40;3.63;;;;;;;12.26;100.00;63265.19;5113951;28;20215;-75
2024/01/18 10:33:40;;;;;;;3.45;3.22;;;;;;;12.63;100.00;63298.44;5113975;28;20411;-75
2024/01/18 10:36:07;;;;;;;3.72;3.40;;;;;;;12.82;96.98;63314.56;5109175;28;20292;-75
2024/01/18 10:38:35;;;;;;;11.98;8.70;;;;;;;12.87;95.91;63320.25;5110632;28;20289;-73
2024/01/18 10:41:02;;;;;;;5.70;5.20;;;;;;;12.78;94.65;63311.44;5108351;28;20578;-75
2024/01/18 10:43:31;;;;;;;11.05;7.47;;;;;;;12.91;94.59;63326.97;5110678;28;20489;-76
2024/01/18 10:45:58;;;;;;;8.35;7.10;;;;;;;13.17;92.55;63355.97;5108356;28;20224;-76
2024/01/18 10:48:26;;;;;;;8.32;6.07;;;;;;;13.28;93.13;63367.94;5112847;28;20295;-78
2024/01/18 10:50:53;;;;;;;5.30;4.85;;;;;;;13.32;91.33;63369.00;5095436;28;20236;-75
2024/01/18 10:53:21;;;;;;;7.22;3.38;;;;;;;13.53;86.84;63395.91;5110323;28;20370;-79
2024/01/18 10:55:48;;;;;;;2.03;1.92;;;;;;;13.93;85.99;63435.38;5114185;28;20423;-80
2024/01/18 10:58:16;;;;;;;3.25;2.90;;;;;;;14.23;83.46;63463.44;5109516;28;20204;-78
2024/01/18 11:00:46;;;;;;;1.90;1.80;;;;;;;14.59;77.49;63502.88;5109728;28;20220;-79
2024/01/18 11:03:13;;;;;;;7.53;4.45;;;;;;;14.70;77.03;63516.88;5104869;28;20208;-75
2024/01/18 11:05:41;;;;;;;3.20;2.17;;;;;;;14.67;75.04;63503.50;5109826;28;20229;-77
2024/01/18 11:08:08;;;;;;;4.20;3.80;;;;;;;14.75;73.68;63517.44;5111241;28;20294;-80
2024/01/18 11:10:35;;;;;;;5.72;3.13;;;;;;;14.74;74.07;63516.41;5105947;28;20474;-75
2024/01/18 11:13:02;;;;;;;2.63;2.00;;;;;;;15.00;70.86;63542.91;5108584;28;20238;-78
2024/01/18 11:15:29;;;;;;;2.25;2.15;;;;;;;15.17;69.77;63563.13;5108040;28;20219;-77
2024/01/18 11:17:59;;;;;;;1.55;1.52;;;;;;;15.36;65.90;63582.88;5108307;28;20219;-78
2024/01/18 11:20:25;;;;;;;4.70;2.47;;;;;;;15.51;64.19;63600.56;5115622;28;20219;-75